This is the latest recevied weather packets stored in our database for station/object KA3BQE-13. If no packets are shown the sender has not sent any weather packets the latest 10 day(s).
| Time | Temp. | Humidity | Pressure | Rain* | Wind** | Luminosity | Snow |
|---|---|---|---|---|---|---|---|
| 1778110579 | 12.22° C | 44% | 1016.9 hPa | 0 mm | - | 51 W/m² | - |
| 1778110276 | 12.22° C | 48% | 1016.9 hPa | 0 mm | - | 64 W/m² | - |
| 1778109972 | 12.78° C | 44% | 1016.8 hPa | 0 mm | - | 50 W/m² | - |
| 1778109667 | 12.78° C | 43% | 1016.8 hPa | 0 mm | - | 65 W/m² | - |
| 1778109365 | 12.78° C | 43% | 1016.9 hPa | 0 mm | - | 48 W/m² | - |
| 1778109063 | 13.33° C | 42% | 1017.1 hPa | 0 mm | - | 69 W/m² | - |
| 1778108759 | 13.33° C | 44% | 1016.7 hPa | 0 mm | - | 62 W/m² | - |
| 1778108457 | 13.33° C | 44% | 1016.9 hPa | 0 mm | - | 79 W/m² | - |
| 1778108153 | 13.89° C | 44% | 1016.8 hPa | 0 mm | - | 128 W/m² | - |
| 1778107850 | 13.89° C | 41% | 1016.7 hPa | 0 mm | - | 114 W/m² | - |
| 1778107547 | 13.89° C | 44% | 1016.6 hPa | 0 mm | - | 81 W/m² | - |
| 1778107243 | 13.33° C | 42% | 1016.5 hPa | 0 mm | - | 93 W/m² | - |
| 1778106939 | 13.33° C | 47% | 1016.6 hPa | 0 mm | - | 67 W/m² | - |
| 1778106636 | 13.89° C | 42% | 1016.5 hPa | 0 mm | - | 69 W/m² | - |
| 1778106333 | 13.89° C | 42% | 1016.5 hPa | 0 mm | - | 94 W/m² | - |
| 1778106029 | 14.44° C | 42% | 1016.6 hPa | 0 mm | - | 163 W/m² | - |
| 1778105727 | 13.89° C | 48% | 1016.2 hPa | 0 mm | - | 170 W/m² | - |
| 1778105424 | 13.89° C | 47% | 1016.5 hPa | 0 mm | - | 120 W/m² | - |
| 1778105120 | 13.89° C | 45% | 1016.5 hPa | 0 mm | - | 153 W/m² | - |
| 1778104816 | 13.89° C | 45% | 1016.3 hPa | 0 mm | - | 195 W/m² | - |
| 1778104513 | 13.89° C | 42% | 1016.3 hPa | 0 mm | - | 369 W/m² | - |
| 1778104209 | 13.89° C | 43% | 1016.6 hPa | 0 mm | - | 261 W/m² | - |
| 1778103907 | 13.33° C | 48% | 1016.5 hPa | 0 mm | - | 247 W/m² | - |
| 1778103604 | 13.33° C | 47% | 1016.5 hPa | 0 mm | - | 212 W/m² | - |
| 1778103301 | 13.33° C | 46% | 1016.5 hPa | 0 mm | - | 211 W/m² | - |
* Rain latest hour (hover to see other rain measurements)
** Current wind speed in m/s (hover to see current wind gust speed)